createdAt,value
2023-02-03T00:00:47.846Z,505.4
2023-02-03T00:01:50.663Z,505.7
2023-02-03T00:02:53.537Z,505.8
2023-02-03T00:03:56.055Z,505.7
2023-02-03T00:04:58.317Z,505.7
2023-02-03T00:06:00.997Z,505.7
2023-02-03T00:07:03.245Z,505.3
2023-02-03T00:08:05.507Z,505.2
2023-02-03T00:09:08.005Z,505.7
2023-02-03T00:10:10.279Z,504.8
2023-02-03T00:11:12.824Z,505.3
2023-02-03T00:12:15.321Z,505.1
2023-02-03T00:13:17.271Z,504.6
2023-02-03T00:14:19.804Z,504.4
2023-02-03T00:15:22.081Z,504.1
2023-02-03T00:16:24.463Z,504.5
2023-02-03T00:17:27.036Z,504.4
2023-02-03T00:18:29.549Z,504.9
2023-02-03T00:19:32.106Z,504.6
2023-02-03T00:20:34.309Z,505.2
2023-02-03T00:21:36.923Z,504.7
2023-02-03T00:22:39.186Z,504.9
2023-02-03T00:23:41.443Z,505.4
2023-02-03T00:24:43.935Z,505.4
2023-02-03T00:25:46.422Z,505.5
2023-02-03T00:26:48.650Z,505.5
2023-02-03T00:27:51.432Z,505.3
2023-02-03T00:28:53.449Z,505.5
2023-02-03T00:29:55.968Z,504.9
2023-02-03T00:30:58.511Z,505.5
2023-02-03T00:32:01.824Z,506.3
2023-02-03T00:33:04.453Z,506.1
2023-02-03T00:34:06.971Z,506.2
2023-02-03T00:35:09.237Z,506
2023-02-03T00:36:11.819Z,506.6
2023-02-03T00:37:14.145Z,506.8
2023-02-03T00:38:16.645Z,505.9
2023-02-03T00:39:18.563Z,507.5
2023-02-03T00:40:21.079Z,506.4
2023-02-03T00:41:23.639Z,506.1
2023-02-03T00:42:25.585Z,506.7
2023-02-03T00:43:28.077Z,506.9
2023-02-03T00:44:30.299Z,506.4
2023-02-03T00:45:33.173Z,506.8
2023-02-03T00:46:35.752Z,506.9
2023-02-03T00:47:38.250Z,506.7
2023-02-03T00:48:40.543Z,506.4
2023-02-03T00:49:42.239Z,506.8
2023-02-03T00:50:44.736Z,506.1
2023-02-03T00:51:47.218Z,506.5
2023-02-03T00:52:49.565Z,505.6
2023-02-03T00:53:51.790Z,506.2
2023-02-03T00:54:53.746Z,506.4
2023-02-03T00:55:55.984Z,505.8
2023-02-03T00:56:58.231Z,506
2023-02-03T00:58:00.741Z,506.8
2023-02-03T00:59:02.967Z,506.5
2023-02-03T01:00:05.504Z,505.5
2023-02-03T01:01:08.181Z,506.3
2023-02-03T01:02:10.716Z,506.1
2023-02-03T01:03:12.976Z,505.3
2023-02-03T01:04:14.937Z,505.6
2023-02-03T01:05:17.206Z,505.7
2023-02-03T01:06:19.742Z,506.2
2023-02-03T01:07:22.020Z,505.7
2023-02-03T01:08:24.682Z,505.6
2023-02-03T01:09:27.221Z,505.6
2023-02-03T01:10:30.302Z,505.5
2023-02-03T01:11:32.845Z,504.7
2023-02-03T01:12:35.094Z,504.6
2023-02-03T01:13:37.585Z,504.5
2023-02-03T01:14:39.840Z,504.2
2023-02-03T01:15:42.050Z,504.7
2023-02-03T01:16:44.927Z,504.4
2023-02-03T01:17:47.427Z,504.2
2023-02-03T01:18:49.936Z,503.9
2023-02-03T01:19:52.472Z,504.6
2023-02-03T01:20:54.740Z,504
2023-02-03T01:21:57.246Z,504.1
2023-02-03T01:22:59.789Z,504.8
2023-02-03T01:24:17.029Z,504.5
2023-02-03T01:25:19.015Z,504.9
2023-02-03T01:26:21.301Z,504.1
2023-02-03T01:27:23.799Z,504.8
2023-02-03T01:28:26.019Z,504.6
2023-02-03T01:29:28.629Z,504.8
2023-02-03T01:30:31.756Z,505.1
2023-02-03T01:31:35.018Z,505.1
2023-02-03T01:32:37.564Z,505.1
2023-02-03T01:33:39.783Z,505.2
2023-02-03T01:34:42.295Z,505.1
2023-02-03T01:35:44.547Z,505.4
2023-02-03T01:36:47.064Z,505.5
2023-02-03T01:37:49.563Z,505.3
2023-02-03T01:38:52.087Z,505.9
2023-02-03T01:39:54.832Z,505.1
2023-02-03T01:40:57.337Z,505.8
2023-02-03T01:41:59.833Z,506
2023-02-03T01:43:02.102Z,506.1
2023-02-03T01:44:04.637Z,506.1
2023-02-03T01:45:07.155Z,506
2023-02-03T01:46:09.767Z,506.3
2023-02-03T01:47:12.323Z,506.3
2023-02-03T01:48:14.844Z,506.4
2023-02-03T01:49:17.380Z,507
2023-02-03T01:50:19.885Z,506.7
2023-02-03T01:51:22.412Z,506.9
2023-02-03T01:52:24.931Z,507
2023-02-03T01:53:27.447Z,506.7
2023-02-03T01:54:29.733Z,504.5
2023-02-03T01:55:32.405Z,505.5
2023-02-03T01:56:34.922Z,506.7
2023-02-03T01:57:37.424Z,506.6
2023-02-03T01:58:39.935Z,506.9
2023-02-03T01:59:43.038Z,506.7
2023-02-03T02:00:45.314Z,507.6
2023-02-03T02:01:48.262Z,507.4
2023-02-03T02:02:51.507Z,507.9
2023-02-03T02:03:54.011Z,507.7
2023-02-03T02:04:56.496Z,507.6
2023-02-03T02:05:58.996Z,508
2023-02-03T02:07:01.581Z,507.2
2023-02-03T02:08:03.874Z,506.9
2023-02-03T02:09:06.394Z,508
2023-02-03T02:10:08.681Z,507.5
2023-02-03T02:11:11.263Z,508.6
2023-02-03T02:12:13.835Z,508.4
2023-02-03T02:13:16.339Z,508.7
2023-02-03T02:14:18.826Z,508.2
2023-02-03T02:15:21.323Z,507.9
2023-02-03T02:16:23.625Z,508
2023-02-03T02:17:26.141Z,507.1
2023-02-03T02:18:28.368Z,507.6
2023-02-03T02:19:30.862Z,506.8
2023-02-03T02:20:32.846Z,507.4
2023-02-03T02:21:35.340Z,507.7
2023-02-03T02:22:37.873Z,507.7
2023-02-03T02:23:40.109Z,506.9
2023-02-03T02:24:42.331Z,507.1
2023-02-03T02:25:44.858Z,506.9
2023-02-03T02:26:48.740Z,507
2023-02-03T02:27:51.548Z,507.7
2023-02-03T02:28:54.063Z,507.8
2023-02-03T02:29:56.599Z,507.4
2023-02-03T02:30:59.733Z,507.9
2023-02-03T02:32:02.841Z,507.2
2023-02-03T02:33:05.095Z,508
2023-02-03T02:34:07.604Z,507.8
2023-02-03T02:35:09.814Z,506.9
2023-02-03T02:36:12.374Z,507.3
2023-02-03T02:37:14.895Z,507
2023-02-03T02:38:17.143Z,507.3
2023-02-03T02:39:19.143Z,507.2
2023-02-03T02:40:21.725Z,507.1
2023-02-03T02:41:24.270Z,507
2023-02-03T02:42:26.630Z,506.9
2023-02-03T02:43:28.884Z,506.9
2023-02-03T02:44:31.112Z,507.8
2023-02-03T02:45:33.612Z,506.9
2023-02-03T02:46:36.246Z,506.8
2023-02-03T02:47:38.785Z,507
2023-02-03T02:48:41.322Z,506.2
2023-02-03T02:49:43.815Z,506.7
2023-02-03T02:50:46.323Z,506
2023-02-03T02:51:48.552Z,506.3
2023-02-03T02:52:50.784Z,504.4
2023-02-03T02:53:53.329Z,506.3
2023-02-03T02:54:55.848Z,506.7
2023-02-03T02:55:57.575Z,506.3
2023-02-03T02:56:59.544Z,506.4
2023-02-03T02:58:02.166Z,506.6
2023-02-03T02:59:04.663Z,506.7
2023-02-03T03:00:06.941Z,507.5
2023-02-03T03:01:09.406Z,508.3
2023-02-03T03:02:11.929Z,506.4
2023-02-03T03:03:14.148Z,508.9
2023-02-03T03:04:16.667Z,508.5
2023-02-03T03:05:18.896Z,508.8
2023-02-03T03:06:21.425Z,508.9
2023-02-03T03:07:23.971Z,508.1
2023-02-03T03:08:26.495Z,508.3
2023-02-03T03:09:28.783Z,507.2
2023-02-03T03:10:31.293Z,507.9
2023-02-03T03:11:33.805Z,508
2023-02-03T03:12:36.070Z,507.8
2023-02-03T03:13:38.467Z,507.5
2023-02-03T03:14:40.709Z,507.6
2023-02-03T03:15:43.275Z,508.3
2023-02-03T03:16:45.830Z,508
2023-02-03T03:17:48.062Z,507.6
2023-02-03T03:18:50.589Z,508.5
2023-02-03T03:19:52.848Z,508
2023-02-03T03:20:55.044Z,507.6
2023-02-03T03:21:57.535Z,507.2
2023-02-03T03:23:00.038Z,507.4
2023-02-03T03:24:02.291Z,507.2
2023-02-03T03:25:04.813Z,508.2
2023-02-03T03:26:07.306Z,507.9
2023-02-03T03:27:09.814Z,507.4
2023-02-03T03:28:12.770Z,507.8
2023-02-03T03:29:15.411Z,508
2023-02-03T03:30:17.660Z,508.2
2023-02-03T03:31:20.614Z,507.8
2023-02-03T03:32:23.274Z,507.2
2023-02-03T03:33:25.779Z,507.7
2023-02-03T03:34:28.013Z,506.9
2023-02-03T03:35:30.575Z,508.3
2023-02-03T03:36:33.137Z,508.9
2023-02-03T03:37:35.669Z,508.8
2023-02-03T03:38:37.891Z,508.7
2023-02-03T03:39:40.421Z,510.1
2023-02-03T03:40:42.952Z,510
2023-02-03T03:41:45.187Z,510.9
2023-02-03T03:42:47.731Z,511.3
2023-02-03T03:43:50.218Z,511.4
2023-02-03T03:44:52.829Z,512.1
2023-02-03T03:45:55.033Z,511.3
2023-02-03T03:46:57.555Z,511.8
2023-02-03T03:48:00.041Z,511.5
2023-02-03T03:49:02.655Z,510.9
2023-02-03T03:50:05.184Z,511.8
2023-02-03T03:51:07.679Z,511.6
2023-02-03T03:52:10.165Z,511.9
2023-02-03T03:53:12.369Z,511.6
2023-02-03T03:54:14.873Z,511.6
2023-02-03T03:55:17.109Z,511.1
2023-02-03T03:56:19.629Z,509.6
2023-02-03T03:57:21.883Z,509.9
2023-02-03T03:58:24.407Z,509.4
2023-02-03T03:59:26.909Z,509.7
2023-02-03T04:00:30.693Z,509.6
2023-02-03T04:01:33.555Z,509.1
2023-02-03T04:02:36.959Z,509.1
2023-02-03T04:03:39.652Z,510.5
2023-02-03T04:04:42.264Z,509.3
2023-02-03T04:05:44.528Z,509.4
2023-02-03T04:06:47.063Z,509.1
2023-02-03T04:07:49.052Z,509.4
2023-02-03T04:08:51.260Z,509.9
2023-02-03T04:09:53.794Z,509.7
2023-02-03T04:10:56.063Z,509.7
2023-02-03T04:11:58.605Z,509.5
2023-02-03T04:13:01.115Z,509.3
2023-02-03T04:14:03.618Z,508.5
2023-02-03T04:15:06.138Z,508.4
2023-02-03T04:16:09.047Z,508.9
2023-02-03T04:17:11.320Z,509.8
2023-02-03T04:18:13.549Z,509.3
2023-02-03T04:19:16.067Z,508.4
2023-02-03T04:20:18.568Z,509.2
2023-02-03T04:21:20.538Z,507.1
2023-02-03T04:22:23.029Z,507.9
2023-02-03T04:23:25.559Z,506.9
2023-02-03T04:24:28.122Z,507.4
2023-02-03T04:25:30.190Z,507.7
2023-02-03T04:26:32.154Z,508.2
2023-02-03T04:27:34.114Z,507.5
2023-02-03T04:28:36.346Z,507.8
2023-02-03T04:29:38.916Z,507.2
2023-02-03T04:30:41.457Z,507.3
2023-02-03T04:31:44.484Z,507.2
2023-02-03T04:32:47.028Z,507.2
2023-02-03T04:33:49.343Z,506.7
2023-02-03T04:34:51.340Z,506.8
2023-02-03T04:35:53.573Z,506.3
2023-02-03T04:36:56.168Z,506.4
2023-02-03T04:37:58.771Z,506.8
2023-02-03T04:39:01.352Z,507.4
2023-02-03T04:40:03.320Z,507.3
2023-02-03T04:41:05.561Z,508
2023-02-03T04:42:08.060Z,508
2023-02-03T04:43:10.600Z,508.2
2023-02-03T04:44:13.326Z,509.1
2023-02-03T04:45:15.992Z,508.8
2023-02-03T04:46:18.544Z,508.5
2023-02-03T04:47:20.889Z,508.2
2023-02-03T04:48:23.156Z,506.6
2023-02-03T04:49:25.676Z,506.9
2023-02-03T04:50:29.677Z,506.7
2023-02-03T04:51:32.181Z,506.2
2023-02-03T04:52:34.754Z,505.9
2023-02-03T04:53:37.039Z,505.9
2023-02-03T04:54:39.558Z,505.6
2023-02-03T04:55:41.806Z,506.5
2023-02-03T04:56:44.043Z,506.5
2023-02-03T04:57:46.567Z,506.6
2023-02-03T04:58:48.855Z,507.5
2023-02-03T04:59:51.387Z,506.7
2023-02-03T05:00:54.193Z,507.5
2023-02-03T05:01:56.712Z,507.2
2023-02-03T05:02:59.709Z,506.9
2023-02-03T05:04:01.971Z,507.1
2023-02-03T05:05:04.548Z,507.1
2023-02-03T05:06:07.181Z,507
2023-02-03T05:07:09.697Z,507.4
2023-02-03T05:08:12.347Z,507.8
2023-02-03T05:09:14.767Z,508.3
2023-02-03T05:10:17.283Z,508.2
2023-02-03T05:11:19.788Z,507.7
2023-02-03T05:12:22.283Z,507
2023-02-03T05:13:24.789Z,507.4
2023-02-03T05:14:27.023Z,507
2023-02-03T05:15:29.518Z,506.2
2023-02-03T05:16:32.357Z,506.4
2023-02-03T05:17:34.934Z,507.2
2023-02-03T05:18:37.538Z,507.1
2023-02-03T05:19:39.802Z,507.5
2023-02-03T05:20:42.305Z,506.9
2023-02-03T05:21:44.582Z,506.5
2023-02-03T05:22:47.080Z,506.4
2023-02-03T05:23:49.603Z,506.5
2023-02-03T05:24:52.095Z,506.7
2023-02-03T05:25:54.312Z,507.2
2023-02-03T05:26:56.544Z,507.1
2023-02-03T05:27:58.739Z,507.5
2023-02-03T05:29:00.996Z,507.2
2023-02-03T05:30:03.333Z,505.7
2023-02-03T05:31:06.059Z,506.5
2023-02-03T05:32:08.781Z,506.7
2023-02-03T05:33:11.497Z,507.2
2023-02-03T05:34:14.111Z,507.3
2023-02-03T05:35:16.621Z,507.9
2023-02-03T05:36:19.134Z,507.7
2023-02-03T05:37:21.095Z,507.6
2023-02-03T05:38:23.625Z,505.7
2023-02-03T05:39:25.912Z,507.5
2023-02-03T05:40:29.706Z,507.7
2023-02-03T05:41:32.145Z,507.2
2023-02-03T05:42:34.104Z,508.1
2023-02-03T05:43:36.699Z,508.1
2023-02-03T05:44:39.269Z,508.7
2023-02-03T05:45:41.953Z,509.4
2023-02-03T05:46:44.263Z,507.8
2023-02-03T05:47:46.542Z,509.5
2023-02-03T05:48:48.799Z,508.9
2023-02-03T05:49:51.420Z,509.6
2023-02-03T05:50:53.416Z,509.7
2023-02-03T05:51:55.996Z,509.5
2023-02-03T05:52:58.508Z,510.2
2023-02-03T05:54:00.769Z,510.2
2023-02-03T05:55:03.299Z,510.6
2023-02-03T05:56:05.528Z,510.8
2023-02-03T05:57:07.456Z,510.1
2023-02-03T05:58:09.950Z,510.2
2023-02-03T05:59:12.481Z,510
2023-02-03T06:00:14.995Z,509.5
2023-02-03T06:01:17.540Z,509
2023-02-03T06:02:19.768Z,509
2023-02-03T06:03:22.532Z,510.2
2023-02-03T06:04:25.436Z,509.7
2023-02-03T06:05:27.832Z,508.7
2023-02-03T06:06:30.353Z,508.6
2023-02-03T06:07:32.875Z,509.1
2023-02-03T06:08:35.387Z,509.7
2023-02-03T06:09:37.926Z,509.6
2023-02-03T06:10:40.441Z,509.5
2023-02-03T06:11:42.953Z,509.4
2023-02-03T06:12:45.316Z,507.9
2023-02-03T06:13:47.823Z,508.8
2023-02-03T06:14:50.383Z,508.5
2023-02-03T06:15:52.899Z,508.5
2023-02-03T06:16:55.517Z,508.2
2023-02-03T06:17:58.047Z,508.7
2023-02-03T06:19:00.460Z,508.9
2023-02-03T06:20:03.002Z,508.7
2023-02-03T06:21:05.615Z,509.1
2023-02-03T06:22:07.841Z,509.9
2023-02-03T06:23:09.817Z,509.2
2023-02-03T06:24:12.051Z,509.3
2023-02-03T06:25:15.028Z,508.3
2023-02-03T06:26:17.548Z,508.6
2023-02-03T06:27:20.105Z,508.6
2023-02-03T06:28:22.558Z,508.1
2023-02-03T06:29:25.079Z,507.7
2023-02-03T06:30:29.877Z,507.1
2023-02-03T06:31:33.253Z,507.2
2023-02-03T06:32:35.853Z,506.3
2023-02-03T06:33:38.385Z,505.8
2023-02-03T06:34:40.891Z,506.2
2023-02-03T06:35:43.407Z,506.5
2023-02-03T06:36:46.054Z,506.4
2023-02-03T06:37:48.547Z,507
2023-02-03T06:38:50.809Z,507.9
2023-02-03T06:39:53.337Z,508
2023-02-03T06:40:55.824Z,508.5
2023-02-03T06:41:58.056Z,509
2023-02-03T06:43:00.566Z,509.8
2023-02-03T06:44:02.821Z,509.4
2023-02-03T06:45:05.110Z,510.5
2023-02-03T06:46:07.855Z,509.9
2023-02-03T06:47:10.370Z,509.1
2023-02-03T06:48:12.629Z,509.6
2023-02-03T06:49:14.843Z,510
2023-02-03T06:50:17.128Z,509.1
2023-02-03T06:51:19.356Z,509.1
2023-02-03T06:52:21.701Z,509.3
2023-02-03T06:53:24.131Z,508.9
2023-02-03T06:54:26.641Z,509.3
2023-02-03T06:55:29.176Z,509.2
2023-02-03T06:56:31.157Z,508.8
2023-02-03T06:57:33.675Z,507.7
2023-02-03T06:58:35.927Z,506.6
2023-02-03T06:59:38.195Z,508.1
2023-02-03T07:00:40.216Z,507.4
2023-02-03T07:01:43.073Z,505.3
2023-02-03T07:02:46.038Z,506.5
2023-02-03T07:03:48.636Z,506.6
2023-02-03T07:04:51.142Z,507.2
2023-02-03T07:05:53.412Z,507.4
2023-02-03T07:06:55.869Z,506.6
2023-02-03T07:07:58.195Z,505.6
2023-02-03T07:09:02.951Z,506.5
2023-02-03T07:10:04.645Z,507.6
2023-02-03T07:11:07.177Z,508
2023-02-03T07:12:09.153Z,507.8
2023-02-03T07:13:11.657Z,508.1
2023-02-03T07:14:14.188Z,508.6
2023-02-03T07:15:16.430Z,507.8
2023-02-03T07:16:19.224Z,508.8
2023-02-03T07:17:21.474Z,509
2023-02-03T07:19:28.968Z,508.7
2023-02-03T07:20:32.409Z,508.8
2023-02-03T07:21:34.915Z,507.8
2023-02-03T07:22:37.443Z,508.4
2023-02-03T07:23:39.809Z,509.1
2023-02-03T07:24:42.318Z,508.6
2023-02-03T07:25:44.579Z,510.1
2023-02-03T07:26:46.800Z,509.7
2023-02-03T07:27:49.772Z,509.4
2023-02-03T07:28:52.007Z,509.4
2023-02-03T07:29:54.227Z,509.6
2023-02-03T07:30:57.464Z,510.6
2023-02-03T07:32:00.729Z,509.9
2023-02-03T07:33:02.892Z,509.3
2023-02-03T07:34:05.421Z,509
2023-02-03T07:35:08.192Z,510.2
2023-02-03T07:36:10.444Z,510
2023-02-03T07:37:12.689Z,510.1
2023-02-03T07:38:14.355Z,510.6
2023-02-03T07:39:16.999Z,510.1
2023-02-03T07:40:18.995Z,511.6
2023-02-03T07:41:21.247Z,511.8
2023-02-03T07:42:23.791Z,511.6
2023-02-03T07:43:26.000Z,509.6
2023-02-03T07:44:27.970Z,510.4
2023-02-03T07:45:30.501Z,511.9
2023-02-03T07:46:33.319Z,511.3
2023-02-03T07:47:35.832Z,512
2023-02-03T07:48:37.798Z,512.2
2023-02-03T07:49:40.318Z,512.3
2023-02-03T07:50:42.857Z,511.7
2023-02-03T07:51:45.089Z,511.7
2023-02-03T07:52:47.330Z,512.3
2023-02-03T07:53:49.886Z,511.2
2023-02-03T07:54:52.518Z,511.5
2023-02-03T07:55:54.487Z,511.7
2023-02-03T07:56:56.719Z,511.9
2023-02-03T07:58:00.611Z,512.3
2023-02-03T07:59:05.935Z,512.2
2023-02-03T08:00:08.249Z,512.1
2023-02-03T08:01:10.225Z,513.4
2023-02-03T08:02:12.320Z,513.4
2023-02-03T08:03:14.035Z,514.2
2023-02-03T08:04:16.561Z,512.8
2023-02-03T08:05:19.392Z,513.8
2023-02-03T08:06:21.921Z,512.4
2023-02-03T08:07:24.460Z,512
2023-02-03T08:08:26.709Z,510.4
2023-02-03T08:09:29.219Z,511.1
2023-02-03T08:10:32.966Z,511.6
2023-02-03T08:11:35.530Z,511.3
2023-02-03T08:12:37.879Z,511.9
2023-02-03T08:13:40.091Z,510.8
2023-02-03T08:14:42.364Z,510.9
2023-02-03T08:15:44.618Z,510.8
2023-02-03T08:16:46.588Z,511.4
2023-02-03T08:17:48.539Z,511.2
2023-02-03T08:18:50.774Z,510.9
2023-02-03T08:19:53.334Z,508.8
2023-02-03T08:20:55.849Z,509.5
2023-02-03T08:21:58.139Z,509.7
2023-02-03T08:23:00.144Z,509.1
2023-02-03T08:24:02.395Z,508.7
2023-02-03T08:25:04.378Z,510.1
2023-02-03T08:26:07.014Z,508.6
2023-02-03T08:27:09.271Z,509.3
2023-02-03T08:28:11.878Z,508.9
2023-02-03T08:29:13.886Z,508.3
2023-02-03T08:30:16.454Z,508.2
2023-02-03T08:31:19.736Z,508.6
2023-02-03T08:32:22.538Z,507.4
2023-02-03T08:33:24.825Z,508
2023-02-03T08:34:27.086Z,509
2023-02-03T08:35:29.636Z,508.8
2023-02-03T08:36:32.165Z,509.1
2023-02-03T08:37:34.728Z,509
2023-02-03T08:38:37.067Z,508.8
2023-02-03T08:39:39.327Z,509.6
2023-02-03T08:40:41.856Z,509.3
2023-02-03T08:41:44.486Z,508.8
2023-02-03T08:42:46.737Z,508
2023-02-03T08:43:49.252Z,508.6
2023-02-03T08:44:51.775Z,507.8
2023-02-03T08:45:54.673Z,508
2023-02-03T08:46:56.680Z,507.4
2023-02-03T08:47:58.923Z,508
2023-02-03T08:49:01.174Z,508.5
2023-02-03T08:50:03.744Z,507.9
2023-02-03T08:51:06.262Z,508.5
2023-02-03T08:52:08.239Z,509
2023-02-03T08:53:10.905Z,510.4
2023-02-03T08:54:13.436Z,511.2
2023-02-03T08:55:15.713Z,510.4
2023-02-03T08:56:17.952Z,512.3
2023-02-03T08:57:20.585Z,512.2
2023-02-03T08:58:23.126Z,511.2
2023-02-03T08:59:25.631Z,512.5
2023-02-03T09:00:30.553Z,512.6
2023-02-03T09:01:33.391Z,513.5
2023-02-03T09:02:35.640Z,512.3
2023-02-03T09:03:38.013Z,512.2
2023-02-03T09:04:40.848Z,511.9
2023-02-03T09:05:43.103Z,512.1
2023-02-03T09:06:45.636Z,511.8
2023-02-03T09:07:47.886Z,513.5
2023-02-03T09:08:50.428Z,513.1
2023-02-03T09:09:52.662Z,513.1
2023-02-03T09:10:54.876Z,514.1
2023-02-03T09:11:59.102Z,514.1
2023-02-03T09:13:01.733Z,514.3
2023-02-03T09:14:07.352Z,512.2
2023-02-03T09:15:09.997Z,511.2
2023-02-03T09:16:12.416Z,511.6
2023-02-03T09:17:14.413Z,513.1
2023-02-03T09:18:17.423Z,512.3
2023-02-03T09:19:19.385Z,513.1
2023-02-03T09:20:22.159Z,511.2
2023-02-03T09:22:29.968Z,512.3
2023-02-03T09:23:32.222Z,512.9
2023-02-03T09:24:34.515Z,512.6
2023-02-03T09:25:37.062Z,512.3
2023-02-03T09:26:38.738Z,512.5
2023-02-03T09:27:41.695Z,511.5
2023-02-03T09:28:44.379Z,511.3
2023-02-03T09:29:46.626Z,511.5
2023-02-03T09:30:49.402Z,510.9
2023-02-03T09:31:51.669Z,511.2
2023-02-03T09:32:53.630Z,512
2023-02-03T09:33:56.252Z,512.4
2023-02-03T09:34:58.794Z,512.3
2023-02-03T09:36:01.170Z,511.6
2023-02-03T09:37:03.155Z,512
2023-02-03T09:38:05.695Z,511.5
2023-02-03T09:39:08.253Z,511.9
2023-02-03T09:40:10.496Z,512.7
2023-02-03T09:41:14.234Z,512.3
2023-02-03T09:42:16.746Z,512.1
2023-02-03T09:43:19.094Z,511.7
2023-02-03T09:44:21.789Z,513
2023-02-03T09:45:24.347Z,512.8
2023-02-03T09:46:27.416Z,512.3
2023-02-03T09:47:29.673Z,513.3
2023-02-03T09:48:32.200Z,513.3
2023-02-03T09:49:34.431Z,512.8
2023-02-03T09:50:36.683Z,513.6
2023-02-03T09:51:39.192Z,511.8
2023-02-03T09:52:41.532Z,511.9
2023-02-03T09:53:43.804Z,512
2023-02-03T09:54:46.380Z,510.8
2023-02-03T09:55:48.677Z,511.3
2023-02-03T09:56:51.215Z,510.6
2023-02-03T09:57:53.729Z,510.8
2023-02-03T09:58:56.261Z,511.1
2023-02-03T09:59:58.946Z,509.8
2023-02-03T10:01:01.970Z,510.7
2023-02-03T10:02:03.703Z,511.7
2023-02-03T10:03:06.271Z,512.5
2023-02-03T10:04:08.537Z,513.7
2023-02-03T10:05:10.787Z,512.8
2023-02-03T10:06:13.339Z,512.6
2023-02-03T10:07:15.852Z,511.2
2023-02-03T10:08:17.872Z,511.8
2023-02-03T10:09:20.433Z,511.3
2023-02-03T10:10:23.167Z,513.2
2023-02-03T10:11:25.212Z,512.8
2023-02-03T10:12:27.531Z,514
2023-02-03T10:13:30.088Z,512.4
2023-02-03T10:14:32.326Z,513.4
2023-02-03T10:15:34.941Z,511.9
2023-02-03T10:16:37.660Z,511.1
2023-02-03T10:17:39.760Z,512.9
2023-02-03T10:18:42.068Z,512.2
2023-02-03T10:19:44.029Z,511.7
2023-02-03T10:20:46.555Z,510.3
2023-02-03T10:21:49.099Z,511.6
2023-02-03T10:22:51.351Z,511.3
2023-02-03T10:23:53.864Z,511.6
2023-02-03T10:24:56.387Z,511.4
2023-02-03T10:25:59.323Z,511.8
2023-02-03T10:27:01.914Z,511.9
2023-02-03T10:28:04.775Z,512.7
2023-02-03T10:29:07.413Z,512.2
2023-02-03T10:30:09.671Z,512.5
2023-02-03T10:31:12.776Z,512.1
2023-02-03T10:32:15.931Z,512.8
2023-02-03T10:33:18.493Z,512.6
2023-02-03T10:34:20.851Z,512
2023-02-03T10:35:23.376Z,512.3
2023-02-03T10:36:25.921Z,512.9
2023-02-03T10:38:33.462Z,512.5
2023-02-03T10:39:35.184Z,512.8
2023-02-03T10:40:37.717Z,512.6
2023-02-03T10:41:39.698Z,511
2023-02-03T10:42:42.224Z,512.4
2023-02-03T10:43:44.732Z,511.9
2023-02-03T10:44:46.955Z,510.9
2023-02-03T10:45:49.187Z,511.7
2023-02-03T10:46:51.900Z,513.3
2023-02-03T10:47:54.689Z,512.9
2023-02-03T10:48:57.301Z,512.7
2023-02-03T10:49:59.575Z,513.2
2023-02-03T10:51:01.514Z,513.9
2023-02-03T10:52:04.063Z,513.7
2023-02-03T10:53:06.293Z,511.6
2023-02-03T10:54:08.284Z,514.5
2023-02-03T10:55:14.168Z,512.7
2023-02-03T10:56:16.727Z,514
2023-02-03T10:57:19.259Z,513.9
2023-02-03T10:58:21.795Z,515
2023-02-03T10:59:24.025Z,514.4
2023-02-03T11:00:28.306Z,513.9
2023-02-03T11:01:31.225Z,514.2
2023-02-03T11:02:33.934Z,513.7
2023-02-03T11:03:36.472Z,513.5
2023-02-03T11:04:39.044Z,513
2023-02-03T11:06:47.385Z,512.3
2023-02-03T11:07:49.964Z,513
2023-02-03T11:08:52.500Z,512.3
2023-02-03T11:09:54.753Z,513
2023-02-03T11:10:57.338Z,512.7
2023-02-03T11:11:59.298Z,512.6
2023-02-03T11:13:01.816Z,512.4
2023-02-03T11:14:03.971Z,511.9
2023-02-03T11:15:06.244Z,512.8
2023-02-03T11:16:08.666Z,513.2
2023-02-03T11:17:10.931Z,513.3
2023-02-03T11:18:13.573Z,514.1
2023-02-03T11:19:15.909Z,513.6
2023-02-03T11:20:18.495Z,509.4
2023-02-03T11:21:20.776Z,514.3
2023-02-03T11:22:23.311Z,515.2
2023-02-03T11:23:25.876Z,514.2
2023-02-03T11:24:28.268Z,514.5
2023-02-03T11:25:30.520Z,516.7
2023-02-03T11:26:33.030Z,516.2
2023-02-03T11:27:35.295Z,514.8
2023-02-03T11:28:37.813Z,515.7
2023-02-03T11:29:40.387Z,515
2023-02-03T11:30:43.057Z,515.5
2023-02-03T11:31:46.265Z,515.6
2023-02-03T11:32:48.644Z,516.7
2023-02-03T11:33:51.361Z,516.5
2023-02-03T11:34:53.310Z,514.7
2023-02-03T11:35:55.865Z,516.5
2023-02-03T11:36:58.405Z,517
2023-02-03T11:38:00.934Z,516.5
2023-02-03T11:39:02.914Z,517.6
2023-02-03T11:40:05.467Z,517.4
2023-02-03T11:41:07.994Z,517.1
2023-02-03T11:42:10.390Z,517.4
2023-02-03T11:43:12.913Z,518.2
2023-02-03T11:44:15.428Z,519.3
2023-02-03T11:45:17.710Z,518.9
2023-02-03T11:46:20.015Z,518.4
2023-02-03T11:48:27.531Z,518.3
2023-02-03T11:49:30.219Z,517.8
2023-02-03T11:50:32.868Z,519.8
2023-02-03T11:51:35.374Z,520
2023-02-03T11:52:37.992Z,520.5
2023-02-03T11:54:45.288Z,518.8
2023-02-03T11:55:47.571Z,519.9
2023-02-03T11:56:50.116Z,520
2023-02-03T11:57:52.387Z,520.4
2023-02-03T11:58:54.622Z,520.3
2023-02-03T11:59:57.187Z,520.6
2023-02-03T12:00:59.809Z,517.7
2023-02-03T12:02:01.511Z,519.4
2023-02-03T12:03:04.395Z,520.3
2023-02-03T12:04:07.362Z,520.4
2023-02-03T12:05:10.009Z,519.7
2023-02-03T12:06:12.524Z,521.1
2023-02-03T12:07:14.734Z,521.9
2023-02-03T12:08:16.985Z,520.7
2023-02-03T12:09:19.498Z,518.1
2023-02-03T12:10:21.751Z,520.6
2023-02-03T12:11:25.698Z,519.6
2023-02-03T12:12:28.217Z,520.2
2023-02-03T12:13:30.445Z,520.3
2023-02-03T12:14:32.968Z,520.6
2023-02-03T12:15:35.182Z,521.3
2023-02-03T12:16:38.245Z,520.5
2023-02-03T12:17:40.842Z,520.6
2023-02-03T12:18:43.072Z,521
2023-02-03T12:19:45.318Z,519.2
2023-02-03T12:20:47.980Z,519
2023-02-03T12:21:50.522Z,521.4
2023-02-03T12:22:53.039Z,519
2023-02-03T12:23:55.269Z,520.8
2023-02-03T12:24:57.563Z,521.3
2023-02-03T12:25:59.839Z,520.8
2023-02-03T12:27:02.129Z,520.2
2023-02-03T12:28:05.112Z,519.9
2023-02-03T12:29:07.375Z,520.5
2023-02-03T12:30:09.628Z,522.2
2023-02-03T12:31:13.011Z,521.8
2023-02-03T12:32:15.327Z,521.3
2023-02-03T12:33:17.901Z,522.8
2023-02-03T12:34:20.301Z,522.7
2023-02-03T12:35:22.565Z,523.3
2023-02-03T12:36:25.189Z,522.6
2023-02-03T12:37:27.419Z,522.3
2023-02-03T12:38:29.935Z,522.3
2023-02-03T12:39:32.199Z,522.1
2023-02-03T12:40:34.588Z,523.8
2023-02-03T12:41:37.250Z,524.3
2023-02-03T12:42:39.270Z,523.9
2023-02-03T12:43:41.581Z,524.1
2023-02-03T12:44:44.102Z,524
2023-02-03T12:45:46.642Z,524.1
2023-02-03T12:46:49.166Z,524.7
2023-02-03T12:47:52.961Z,525.7
2023-02-03T12:48:55.586Z,524.8
2023-02-03T12:49:57.684Z,525.3
2023-02-03T12:51:00.242Z,526.3
2023-02-03T12:52:02.869Z,526.1
2023-02-03T12:53:05.412Z,525.4
2023-02-03T12:54:07.942Z,526.3
2023-02-03T12:55:10.462Z,526.8
2023-02-03T12:56:12.720Z,527.2
2023-02-03T12:57:15.255Z,527.2
2023-02-03T12:58:17.502Z,527.1
2023-02-03T12:59:19.756Z,527.1
2023-02-03T13:00:22.307Z,527
2023-02-03T13:01:25.456Z,527.5
2023-02-03T13:02:27.788Z,526.7
2023-02-03T13:03:30.374Z,528.5
2023-02-03T13:04:32.609Z,527.7
2023-02-03T13:05:34.852Z,528.5
2023-02-03T13:06:37.066Z,528.3
2023-02-03T13:07:39.442Z,529.9
2023-02-03T13:08:41.712Z,527.1
2023-02-03T13:09:43.952Z,528.7
2023-02-03T13:10:46.494Z,530.5
2023-02-03T13:11:48.527Z,531.1
2023-02-03T13:12:51.153Z,528.5
2023-02-03T13:13:53.430Z,530.3
2023-02-03T13:14:55.953Z,528.8
2023-02-03T13:15:58.467Z,528.7
2023-02-03T13:17:01.408Z,529.6
2023-02-03T13:18:03.708Z,530.2
2023-02-03T13:19:06.283Z,527.4
2023-02-03T13:20:08.255Z,529.9
2023-02-03T13:21:10.527Z,531.7
2023-02-03T13:22:12.505Z,531.3
2023-02-03T13:23:15.142Z,531.7
2023-02-03T13:24:17.681Z,532.2
2023-02-03T13:25:19.934Z,530.6
2023-02-03T13:26:22.494Z,530.9
2023-02-03T13:27:24.724Z,530.1
2023-02-03T13:28:27.238Z,529.6
2023-02-03T13:29:29.776Z,529.7
2023-02-03T13:30:32.649Z,529.4
2023-02-03T13:31:35.501Z,529.4
2023-02-03T13:32:37.502Z,530
2023-02-03T13:33:39.768Z,530.7
2023-02-03T13:34:42.326Z,530
2023-02-03T13:35:44.862Z,528.7
2023-02-03T13:36:47.100Z,528.5